Time;durP1;ratioP1;P1;durP2;ratioP2;P2;SDS_P1;SDS_P2;PMS_P1;PMS_P2;Temp;Humidity;BMP_temperature;BMP_pressure;BME280_temperature;BME280_humidity;BME280_pressure;Samples;Min_cycle;Max_cycle;Signal;HPM_P1;HPM_P2
2023/03/13 00:04:13;;;;;;;8.2;4.5;;;;;;;4.9;63.4;98300;;;;
2023/03/13 00:15:13;;;;;;;5.6;2.7;;;;;;;5;63.8;98310;;;;
2023/03/13 00:25:12;;;;;;;5.6;2.7;;;;;;;5.2;66.7;98320;;;;
2023/03/13 00:35:12;;;;;;;5.6;2.7;;;;;;;5.3;68.3;98300;;;;
2023/03/13 00:45:13;;;;;;;4.4;2.5;;;;;;;5.3;68.5;98270;;;;
2023/03/13 00:56:12;;;;;;;4.4;2.5;;;;;;;5.1;70.2;98260;;;;
2023/03/13 01:07:12;;;;;;;4.4;2.5;;;;;;;5.1;70.6;98260;;;;
2023/03/13 01:18:14;;;;;;;6.5;3.6;;;;;;;5.2;70.7;98250;;;;
2023/03/13 01:29:12;;;;;;;6.5;3.6;;;;;;;5.2;70.2;98240;;;;
2023/03/13 01:39:13;;;;;;;6.5;3.6;;;;;;;5.3;70;98240;;;;
2023/03/13 01:49:12;;;;;;;4.7;2.6;;;;;;;5.4;70;98250;;;;
2023/03/13 01:59:13;;;;;;;4.7;2.6;;;;;;;5.5;69.8;98250;;;;
2023/03/13 02:10:13;;;;;;;4.7;2.6;;;;;;;5.6;70.1;98270;;;;
2023/03/13 02:21:12;;;;;;;6.8;3.1;;;;;;;5.6;70.3;98260;;;;
2023/03/13 02:32:12;;;;;;;6.8;3.1;;;;;;;5.7;70.6;98280;;;;
2023/03/13 02:42:12;;;;;;;5.1;3.1;;;;;;;5.8;70.8;98300;;;;
2023/03/13 02:53:12;;;;;;;5.1;3.1;;;;;;;6;70.6;98300;;;;
2023/03/13 03:03:12;;;;;;;5.1;3.1;;;;;;;6.1;70.9;98320;;;;
2023/03/13 03:13:12;;;;;;;4.8;2.5;;;;;;;6.1;71.2;98320;;;;
2023/03/13 03:23:13;;;;;;;4.8;2.5;;;;;;;6.2;71.2;98320;;;;
2023/03/13 03:34:13;;;;;;;4.8;2.5;;;;;;;6.2;71.8;98310;;;;
2023/03/13 03:44:13;;;;;;;5.3;3;;;;;;;6.2;71.9;98310;;;;
2023/03/13 03:55:13;;;;;;;5.3;3;;;;;;;6.2;72.6;98310;;;;
2023/03/13 04:06:12;;;;;;;5.3;3;;;;;;;6.2;73.2;98310;;;;
2023/03/13 04:16:13;;;;;;;5.9;3;;;;;;;6.3;73.5;98300;;;;
2023/03/13 04:26:13;;;;;;;5.9;3;;;;;;;6.3;73.8;98300;;;;
2023/03/13 04:37:13;;;;;;;5.9;3;;;;;;;6.3;74.2;98310;;;;
2023/03/13 04:47:13;;;;;;;6.3;2.6;;;;;;;6.4;74.3;98310;;;;
2023/03/13 04:58:13;;;;;;;6.3;2.6;;;;;;;6.4;74.4;98310;;;;
2023/03/13 05:09:13;;;;;;;6.3;2.6;;;;;;;6.5;74.7;98310;;;;
2023/03/13 05:19:13;;;;;;;5.6;2.7;;;;;;;6.6;74.9;98300;;;;
2023/03/13 05:30:13;;;;;;;5.6;2.7;;;;;;;6.7;75;98290;;;;
2023/03/13 05:40:13;;;;;;;5.6;2.7;;;;;;;6.8;75;98280;;;;
2023/03/13 05:50:13;;;;;;;8.5;4;;;;;;;7;74.9;98280;;;;
2023/03/13 06:01:13;;;;;;;8.5;4;;;;;;;7.1;74.8;98290;;;;
2023/03/13 06:11:13;;;;;;;8.6;4.5;;;;;;;7.3;74.6;98290;;;;
2023/03/13 06:22:13;;;;;;;8.6;4.5;;;;;;;7.5;74.3;98280;;;;
2023/03/13 06:32:13;;;;;;;8.6;4.5;;;;;;;7.6;74.1;98280;;;;
2023/03/13 06:42:13;;;;;;;7.6;4;;;;;;;7.8;73.7;98280;;;;
2023/03/13 06:52:13;;;;;;;7.6;4;;;;;;;8.1;73.3;98270;;;;
2023/03/13 07:03:13;;;;;;;7.6;4;;;;;;;8.5;72;98250;;;;
2023/03/13 07:13:13;;;;;;;7;4.2;;;;;;;8.8;71.1;98250;;;;
2023/03/13 07:23:13;;;;;;;7;4.2;;;;;;;9.1;70.7;98240;;;;
2023/03/13 07:34:13;;;;;;;7;4.2;;;;;;;9.6;70.1;98240;;;;
2023/03/13 07:44:13;;;;;;;10.2;4.1;;;;;;;9.7;69.2;98220;;;;
2023/03/13 07:55:13;;;;;;;10.2;4.1;;;;;;;10.2;68.3;98200;;;;
2023/03/13 08:06:13;;;;;;;10.2;4.1;;;;;;;10.4;67.3;98200;;;;
2023/03/13 08:17:13;;;;;;;9.5;4;;;;;;;10.7;67.3;98200;;;;
2023/03/13 08:27:13;;;;;;;9.5;4;;;;;;;10.9;65.9;98200;;;;
2023/03/13 08:37:13;;;;;;;9.5;4;;;;;;;11.5;64.8;98190;;;;
2023/03/13 08:48:13;;;;;;;8.5;3.9;;;;;;;12;63.7;98180;;;;
2023/03/13 08:59:14;;;;;;;8.5;3.9;;;;;;;12.2;62.5;98160;;;;
2023/03/13 09:09:13;;;;;;;8.5;3.9;;;;;;;12.6;60.9;98160;;;;
2023/03/13 09:20:13;;;;;;;5.3;3.1;;;;;;;12.8;60.3;98150;;;;
2023/03/13 09:31:13;;;;;;;5.3;3.1;;;;;;;12.9;60.3;98140;;;;
2023/03/13 09:41:13;;;;;;;6.2;3.2;;;;;;;13.1;59.6;98140;;;;
2023/03/13 09:51:13;;;;;;;6.2;3.2;;;;;;;13.4;58.8;98120;;;;
2023/03/13 10:02:13;;;;;;;6.2;3.2;;;;;;;13.7;57.2;98100;;;;
2023/03/13 10:12:13;;;;;;;9.6;3.9;;;;;;;13.9;56.5;98070;;;;
2023/03/13 10:23:13;;;;;;;9.6;3.9;;;;;;;14;54.3;98070;;;;
2023/03/13 10:34:13;;;;;;;9.6;3.9;;;;;;;14.2;53.2;98060;;;;
2023/03/13 10:44:13;;;;;;;6.1;2.4;;;;;;;14.4;52.6;98050;;;;
2023/03/13 10:55:13;;;;;;;6.1;2.4;;;;;;;14.8;50.4;98040;;;;
2023/03/13 11:05:13;;;;;;;6.1;2.4;;;;;;;14.9;48.6;98040;;;;
2023/03/13 11:15:13;;;;;;;6;2.3;;;;;;;14.9;48.8;98020;;;;
2023/03/13 11:26:13;;;;;;;6;2.3;;;;;;;15;48.6;98010;;;;
2023/03/13 11:36:13;;;;;;;6;2.3;;;;;;;15;48.2;97990;;;;
2023/03/13 11:47:13;;;;;;;4.9;1.9;;;;;;;15.1;45.9;97970;;;;
2023/03/13 11:57:13;;;;;;;4.9;1.9;;;;;;;14.8;46.3;97960;;;;
2023/03/13 12:07:13;;;;;;;4.9;1.9;;;;;;;14.9;46;97940;;;;
2023/03/13 12:17:13;;;;;;;3.8;1.4;;;;;;;14.8;45.4;97920;;;;
2023/03/13 12:28:13;;;;;;;3.8;1.4;;;;;;;14.8;46.5;97890;;;;
2023/03/13 12:38:13;;;;;;;3.8;1.4;;;;;;;15;45.2;97880;;;;
2023/03/13 12:48:13;;;;;;;6.3;1.5;;;;;;;15.3;43.2;97850;;;;
2023/03/13 12:59:13;;;;;;;6.3;1.5;;;;;;;15.3;42.6;97860;;;;
2023/03/13 13:10:15;;;;;;;6.3;1.5;;;;;;;15.3;43.1;97860;;;;
2023/03/13 13:20:13;;;;;;;2.6;1.4;;;;;;;15.1;43.9;97850;;;;
2023/03/13 13:30:13;;;;;;;2.6;1.4;;;;;;;14.9;44.7;97860;;;;
2023/03/13 13:40:13;;;;;;;2.6;1.4;;;;;;;14.8;46.8;97850;;;;
2023/03/13 13:50:13;;;;;;;3.2;2;;;;;;;14.5;49.6;97870;;;;
2023/03/13 14:00:14;;;;;;;3.2;2;;;;;;;14;53.2;97870;;;;
2023/03/13 14:11:13;;;;;;;4.3;1.8;;;;;;;13.3;57.6;97860;;;;
2023/03/13 14:22:13;;;;;;;4.3;1.8;;;;;;;12.8;61.8;97850;;;;
2023/03/13 14:32:13;;;;;;;4.3;1.8;;;;;;;12.6;60.5;97840;;;;
2023/03/13 14:42:13;;;;;;;3.8;1.8;;;;;;;12.5;61.1;97840;;;;
2023/03/13 14:52:13;;;;;;;3.8;1.8;;;;;;;12.4;60.7;97830;;;;
2023/03/13 15:03:15;;;;;;;3.8;1.8;;;;;;;12.3;61;97830;;;;
2023/03/13 15:14:13;;;;;;;4.1;1.8;;;;;;;12.4;60.8;97820;;;;
2023/03/13 15:25:13;;;;;;;4.1;1.8;;;;;;;12.3;62.5;97810;;;;
2023/03/13 15:35:13;;;;;;;4.1;1.8;;;;;;;12;63.9;97810;;;;
2023/03/13 15:46:13;;;;;;;4.8;2.6;;;;;;;11.9;64.3;97790;;;;
2023/03/13 15:56:13;;;;;;;4.8;2.6;;;;;;;11.9;64.3;97780;;;;
2023/03/13 16:06:14;;;;;;;4.8;2.6;;;;;;;11.8;63.8;97770;;;;
2023/03/13 16:17:13;;;;;;;4.3;2.5;;;;;;;11.8;63.7;97790;;;;
2023/03/13 16:27:13;;;;;;;4.3;2.5;;;;;;;11.7;63.7;97790;;;;
2023/03/13 16:37:13;;;;;;;4.3;2.5;;;;;;;11.7;63.6;97790;;;;
2023/03/13 16:47:13;;;;;;;4.8;2.9;;;;;;;11.6;64;97790;;;;
2023/03/13 16:57:13;;;;;;;4.8;2.9;;;;;;;11.5;64.4;97790;;;;
2023/03/13 17:07:13;;;;;;;4.8;2.9;;;;;;;11.4;64.6;97770;;;;
2023/03/13 17:18:13;;;;;;;6.8;3.8;;;;;;;11.3;64.1;97750;;;;
2023/03/13 17:28:13;;;;;;;6.8;3.8;;;;;;;11.2;64.7;97730;;;;
2023/03/13 17:38:13;;;;;;;6.8;3.8;;;;;;;11.1;64.5;97730;;;;
2023/03/13 17:49:13;;;;;;;7.3;3.8;;;;;;;11.1;64.1;97720;;;;
2023/03/13 17:59:13;;;;;;;7.3;3.8;;;;;;;11;63.7;97710;;;;
2023/03/13 18:09:13;;;;;;;7.3;3.8;;;;;;;11.5;61.3;97690;;;;
2023/03/13 18:20:13;;;;;;;6.9;3.6;;;;;;;11.5;60.6;97680;;;;
2023/03/13 18:30:13;;;;;;;6.9;3.6;;;;;;;11.4;61;97650;;;;
2023/03/13 18:40:13;;;;;;;6.9;3.6;;;;;;;11.2;61.5;97620;;;;
2023/03/13 18:50:13;;;;;;;7.6;4.6;;;;;;;10.8;62.6;97600;;;;
2023/03/13 19:00:13;;;;;;;7.6;4.6;;;;;;;10.5;63.7;97560;;;;
2023/03/13 19:11:13;;;;;;;19;15;;;;;;;10;64.7;97580;;;;
2023/03/13 19:21:13;;;;;;;19;15;;;;;;;9.5;65.2;97570;;;;
2023/03/13 19:31:13;;;;;;;19;15;;;;;;;9.1;65.7;97560;;;;
2023/03/13 19:42:13;;;;;;;18.7;11.5;;;;;;;8.8;66;97560;;;;
2023/03/13 19:53:13;;;;;;;18.7;11.5;;;;;;;8.6;66.9;97560;;;;
2023/03/13 20:03:13;;;;;;;18.7;11.5;;;;;;;8.5;67.9;97560;;;;
2023/03/13 20:13:13;;;;;;;27.6;15.5;;;;;;;8.3;68.2;97550;;;;
2023/03/13 20:24:13;;;;;;;27.6;15.5;;;;;;;8.2;68.4;97540;;;;
2023/03/13 20:34:13;;;;;;;27.6;15.5;;;;;;;8.2;69.1;97530;;;;
2023/03/13 20:45:13;;;;;;;12;7.4;;;;;;;8.3;68.1;97520;;;;
2023/03/13 20:56:13;;;;;;;12;7.4;;;;;;;8;68.4;97520;;;;
2023/03/13 21:06:13;;;;;;;12;7.4;;;;;;;7.9;69;97510;;;;
2023/03/13 21:17:14;;;;;;;14.3;7.7;;;;;;;8;68.4;97490;;;;
2023/03/13 21:27:13;;;;;;;14.3;7.7;;;;;;;8.2;67;97470;;;;
2023/03/13 21:37:13;;;;;;;14.3;7.7;;;;;;;8.4;66.3;97460;;;;
2023/03/13 21:47:16;;;;;;;10;4.1;;;;;;;8.6;65.7;97450;;;;
2023/03/13 21:57:14;;;;;;;10;4.1;;;;;;;8.7;64.5;97430;;;;
2023/03/13 22:07:13;;;;;;;10;4.1;;;;;;;8.9;64.8;97410;;;;
2023/03/13 22:18:13;;;;;;;7.5;3.7;;;;;;;9.3;63.7;97400;;;;
2023/03/13 22:29:13;;;;;;;7.5;3.7;;;;;;;9.3;64;97410;;;;
2023/03/13 22:39:13;;;;;;;7.5;3.7;;;;;;;9.2;64.1;97410;;;;
2023/03/13 22:50:13;;;;;;;12.8;8.7;;;;;;;9;64.3;97410;;;;
2023/03/13 23:00:13;;;;;;;12.8;8.7;;;;;;;8.8;64;97400;;;;
2023/03/13 23:11:13;;;;;;;13;7.7;;;;;;;8.8;64.4;97380;;;;
2023/03/13 23:21:13;;;;;;;13;7.7;;;;;;;8.8;64.8;97370;;;;
2023/03/13 23:31:13;;;;;;;13;7.7;;;;;;;8.9;64;97340;;;;
2023/03/13 23:41:13;;;;;;;5.7;3.2;;;;;;;9.1;63.4;97330;;;;
2023/03/13 23:52:13;;;;;;;5.7;3.2;;;;;;;9.4;62.4;97300;;;;
